Time;durP1;ratioP1;P1;durP2;ratioP2;P2;SDS_P1;SDS_P2;PMS_P1;PMS_P2;Temp;Humidity;BMP_temperature;BMP_pressure;BME280_temperature;BME280_humidity;BME280_pressure;Samples;Min_cycle;Max_cycle;Signal;HPM_P1;HPM_P2
2022/08/22 00:01:28;;;;;;;4.13;1.85;;;16.10;99.90;;;;;;5011733;28;20207;-88
2022/08/22 00:04:02;;;;;;;3.80;1.92;;;16.10;99.90;;;;;;5010902;28;20227;-88
2022/08/22 00:06:46;;;;;;;3.47;1.77;;;16.00;99.90;;;;;;5011372;28;20179;-88
2022/08/22 00:09:43;;;;;;;6.30;1.98;;;15.90;99.90;;;;;;5010610;28;20643;-88
2022/08/22 00:12:30;;;;;;;3.78;1.85;;;15.90;99.90;;;;;;5011599;28;20175;-88
2022/08/22 00:15:16;;;;;;;4.43;2.20;;;15.90;99.90;;;;;;5010780;28;20175;-88
2022/08/22 00:18:09;;;;;;;4.90;2.10;;;15.90;99.90;;;;;;5012364;28;20497;-88
2022/08/22 00:20:44;;;;;;;5.75;2.08;;;15.90;99.90;;;;;;5010991;28;20574;-88
2022/08/22 00:23:29;;;;;;;3.67;1.90;;;15.90;99.90;;;;;;5011182;28;20652;-88
2022/08/22 00:26:04;;;;;;;6.53;1.92;;;15.80;99.90;;;;;;5010945;28;20167;-88
2022/08/22 00:29:08;;;;;;;4.97;2.63;;;15.80;99.90;;;;;;5011079;28;20174;-88
2022/08/22 00:31:45;;;;;;;3.92;1.85;;;15.80;99.90;;;;;;4954798;28;20240;-88
2022/08/22 00:34:24;;;;;;;6.20;1.80;;;15.70;99.90;;;;;;5004754;28;20197;-88
2022/08/22 00:37:03;;;;;;;3.10;1.80;;;15.70;99.90;;;;;;5012254;28;20167;-88
2022/08/22 00:39:48;;;;;;;5.82;2.30;;;15.70;99.90;;;;;;5011573;28;20205;-88
2022/08/22 00:42:35;;;;;;;5.03;1.92;;;15.60;99.90;;;;;;5010709;28;20557;-88
2022/08/22 00:45:19;;;;;;;3.72;1.60;;;15.60;99.90;;;;;;5010687;28;20278;-88
2022/08/22 00:48:25;;;;;;;4.93;2.30;;;15.60;99.90;;;;;;5010743;28;20206;-88
2022/08/22 00:51:30;;;;;;;3.85;1.98;;;15.50;99.90;;;;;;4959069;28;20211;-88
2022/08/22 00:54:08;;;;;;;3.88;1.73;;;15.50;99.90;;;;;;5010687;28;20179;-88
2022/08/22 00:57:10;;;;;;;3.22;1.90;;;15.50;99.90;;;;;;5010539;28;20254;-88
2022/08/22 01:00:15;;;;;;;3.25;1.90;;;15.50;99.90;;;;;;5010674;28;20233;-88
2022/08/22 01:02:54;;;;;;;5.20;2.10;;;15.40;99.90;;;;;;5011376;28;20537;-88
2022/08/22 01:05:58;;;;;;;4.72;1.80;;;15.40;99.90;;;;;;5014041;28;20185;-88
2022/08/22 01:08:23;;;;;;;4.22;1.90;;;15.30;99.90;;;;;;5014257;28;20163;-88
2022/08/22 01:10:58;;;;;;;4.70;2.05;;;15.10;99.90;;;;;;5014237;28;20206;-88
2022/08/22 01:13:34;;;;;;;4.43;2.00;;;15.10;99.90;;;;;;5013784;28;20202;-88
2022/08/22 01:16:12;;;;;;;4.55;2.25;;;15.10;99.90;;;;;;5014093;28;20170;-88
2022/08/22 01:19:13;;;;;;;4.00;2.10;;;15.00;99.90;;;;;;5013474;28;20171;-89
2022/08/22 01:21:50;;;;;;;7.40;2.13;;;15.00;99.90;;;;;;5014053;28;20205;-88
2022/08/22 01:24:34;;;;;;;4.30;1.77;;;14.90;99.90;;;;;;5013728;28;20171;-88
2022/08/22 01:27:15;;;;;;;6.18;2.10;;;14.90;99.90;;;;;;5017247;28;20174;-88
2022/08/22 01:29:59;;;;;;;4.90;2.30;;;14.80;99.90;;;;;;5034841;28;20199;-88
2022/08/22 01:33:09;;;;;;;6.45;2.03;;;14.90;99.90;;;;;;5017365;28;20175;-88
2022/08/22 01:35:53;;;;;;;5.22;2.17;;;14.90;99.90;;;;;;5017442;28;20169;-88
2022/08/22 01:38:45;;;;;;;3.42;1.95;;;14.80;99.90;;;;;;5017517;28;20163;-88
2022/08/22 01:42:03;;;;;;;4.78;2.05;;;14.70;99.90;;;;;;4980136;28;20226;-88
2022/08/22 01:44:43;;;;;;;3.47;1.90;;;14.80;99.90;;;;;;4963691;28;20182;-88
2022/08/22 01:47:21;;;;;;;3.42;2.22;;;14.70;99.90;;;;;;5017105;28;20316;-88
2022/08/22 01:50:01;;;;;;;4.70;2.15;;;14.70;99.90;;;;;;5433171;23;20267;-89
2022/08/22 01:52:45;;;;;;;4.60;2.42;;;14.60;99.90;;;;;;4980495;28;20640;-89
2022/08/22 01:55:22;;;;;;;4.22;2.25;;;14.60;99.90;;;;;;4980279;28;20689;-89
2022/08/22 01:58:11;;;;;;;5.10;1.88;;;14.50;99.90;;;;;;4980512;28;20249;-89
2022/08/22 02:00:57;;;;;;;4.07;2.22;;;14.60;99.90;;;;;;4996902;28;20204;-89
2022/08/22 02:03:52;;;;;;;6.00;2.30;;;14.60;99.90;;;;;;4980229;28;20250;-89
2022/08/22 02:06:41;;;;;;;4.90;2.05;;;14.70;99.90;;;;;;4967161;28;20244;-90
2022/08/22 02:09:29;;;;;;;4.32;1.90;;;14.60;99.90;;;;;;4975144;28;20223;-89
2022/08/22 02:12:25;;;;;;;9.27;2.33;;;14.60;99.90;;;;;;4980240;28;20187;-89
2022/08/22 02:15:06;;;;;;;2.70;1.75;;;14.60;99.90;;;;;;4965260;28;20211;-89
2022/08/22 02:17:49;;;;;;;4.70;2.22;;;14.50;99.90;;;;;;4980340;28;20606;-89
2022/08/22 02:20:34;;;;;;;2.92;2.03;;;14.50;99.90;;;;;;4979491;28;20717;-89
2022/08/22 02:23:28;;;;;;;4.30;1.90;;;14.50;99.90;;;;;;4980165;28;20242;-88
2022/08/22 02:26:02;;;;;;;5.95;2.28;;;14.50;99.90;;;;;;4975905;28;20188;-89
2022/08/22 02:28:46;;;;;;;4.57;1.75;;;14.50;99.90;;;;;;4980088;28;20176;-89
2022/08/22 02:31:38;;;;;;;3.42;1.92;;;14.50;99.90;;;;;;4980158;28;20180;-88
2022/08/22 02:34:25;;;;;;;3.55;1.80;;;14.40;99.90;;;;;;4975870;28;20630;-89
2022/08/22 02:37:16;;;;;;;3.67;1.95;;;14.40;99.90;;;;;;4979914;28;20172;-89
2022/08/22 02:39:51;;;;;;;3.45;2.10;;;14.20;99.90;;;;;;4980184;28;20172;-89
2022/08/22 02:42:32;;;;;;;3.08;2.28;;;14.20;99.90;;;;;;4998171;28;20274;-90
2022/08/22 02:45:22;;;;;;;5.35;1.80;;;14.10;99.90;;;;;;4979965;28;20167;-90
2022/08/22 02:48:03;;;;;;;2.97;2.10;;;14.00;99.90;;;;;;4979174;28;20187;-89
2022/08/22 02:50:52;;;;;;;3.75;2.00;;;14.00;99.90;;;;;;4979694;28;20238;-89
2022/08/22 02:53:26;;;;;;;4.18;2.08;;;14.00;99.90;;;;;;4980104;28;20666;-89
2022/08/22 02:56:18;;;;;;;2.80;2.05;;;14.10;99.90;;;;;;4980335;28;20179;-90
2022/08/22 02:59:18;;;;;;;5.63;2.17;;;14.10;99.90;;;;;;4997395;28;20599;-90
2022/08/22 03:01:50;;;;;;;7.65;2.50;;;14.10;99.90;;;;;;4955055;28;20216;-89
2022/08/22 03:04:30;;;;;;;4.90;2.42;;;14.10;99.90;;;;;;4960534;28;20508;-89
2022/08/22 03:07:22;;;;;;;4.40;1.95;;;14.20;99.90;;;;;;4960366;28;20235;-88
2022/08/22 03:09:47;;;;;;;7.30;2.03;;;14.20;99.90;;;;;;4960468;28;20184;-89
2022/08/22 03:12:27;;;;;;;4.03;1.80;;;14.10;99.90;;;;;;4960552;28;20184;-90
2022/08/22 03:15:17;;;;;;;3.50;2.15;;;14.00;99.90;;;;;;4960629;28;20207;-90
2022/08/22 03:18:15;;;;;;;3.60;1.90;;;13.90;99.90;;;;;;4960479;28;20187;-89
2022/08/22 03:20:48;;;;;;;4.57;2.33;;;13.80;99.90;;;;;;4959681;28;20253;-89
2022/08/22 03:23:41;;;;;;;3.47;2.08;;;13.70;99.90;;;;;;4960239;28;20177;-89
2022/08/22 03:26:16;;;;;;;4.25;2.30;;;13.70;99.90;;;;;;4960376;28;20184;-88
2022/08/22 03:29:11;;;;;;;3.72;2.30;;;13.60;99.90;;;;;;4960127;28;20607;-88
2022/08/22 03:31:47;;;;;;;3.10;2.15;;;13.60;99.90;;;;;;4978967;28;20196;-89
2022/08/22 03:34:35;;;;;;;3.70;2.25;;;13.60;99.90;;;;;;4979176;28;20265;-90
2022/08/22 03:37:04;;;;;;;4.15;2.30;;;13.70;99.90;;;;;;4979297;28;20218;-90
2022/08/22 03:40:04;;;;;;;4.57;2.80;;;13.60;99.90;;;;;;4979362;28;20179;-90
2022/08/22 03:42:53;;;;;;;4.95;2.13;;;13.50;99.90;;;;;;4979350;28;20600;-89
2022/08/22 03:45:40;;;;;;;3.72;2.33;;;13.50;99.90;;;;;;4979283;28;20550;-89
2022/08/22 03:48:15;;;;;;;3.85;2.33;;;13.50;99.90;;;;;;4995934;28;20343;-90
2022/08/22 03:51:19;;;;;;;5.20;2.33;;;13.40;99.90;;;;;;4975554;28;20219;-90
2022/08/22 03:53:57;;;;;;;4.95;2.25;;;13.30;99.90;;;;;;4975858;28;20539;-90
2022/08/22 03:56:40;;;;;;;4.15;2.40;;;13.40;99.90;;;;;;4976210;28;20176;-89
2022/08/22 03:59:44;;;;;;;2.72;2.53;;;13.40;99.90;;;;;;4975971;28;20176;-90
2022/08/22 04:02:36;;;;;;;5.20;2.17;;;13.40;99.90;;;;;;4976839;28;20274;-89
2022/08/22 04:05:39;;;;;;;4.50;2.42;;;13.40;99.90;;;;;;4975735;28;20263;-90
2022/08/22 04:08:13;;;;;;;2.97;2.33;;;13.30;99.90;;;;;;4976763;28;20173;-90
2022/08/22 04:11:22;;;;;;;7.55;2.25;;;13.40;99.90;;;;;;4975656;28;20171;-90
2022/08/22 04:14:17;;;;;;;5.20;2.30;;;13.30;99.90;;;;;;4957127;28;20628;-89
2022/08/22 04:17:04;;;;;;;5.35;2.55;;;13.30;99.90;;;;;;4957858;28;20279;-89
2022/08/22 04:19:44;;;;;;;3.15;2.40;;;13.20;99.90;;;;;;4976557;28;20169;-90
2022/08/22 04:22:32;;;;;;;4.20;2.17;;;13.20;99.90;;;;;;4976329;28;20200;-90
2022/08/22 04:25:11;;;;;;;3.47;2.38;;;13.20;99.90;;;;;;4975184;28;20232;-90
2022/08/22 04:28:16;;;;;;;3.20;2.40;;;13.20;99.90;;;;;;4975624;28;20223;-89
2022/08/22 04:31:06;;;;;;;5.43;2.17;;;13.30;99.90;;;;;;4939228;29;20276;-89
2022/08/22 04:33:53;;;;;;;4.05;2.20;;;13.30;99.90;;;;;;4974129;28;20255;-89
2022/08/22 04:36:42;;;;;;;2.78;2.08;;;13.30;99.90;;;;;;4975409;28;20562;-90
2022/08/22 04:39:19;;;;;;;2.70;1.95;;;13.20;99.90;;;;;;4975659;28;20255;-90
2022/08/22 04:41:51;;;;;;;4.07;2.35;;;13.20;99.90;;;;;;4975293;28;20204;-90
2022/08/22 04:44:26;;;;;;;3.03;2.30;;;13.20;99.90;;;;;;4975265;28;20168;-91
2022/08/22 04:47:01;;;;;;;3.42;1.92;;;13.20;99.90;;;;;;4975230;28;20183;-90
2022/08/22 04:49:34;;;;;;;4.60;2.33;;;13.30;99.90;;;;;;4975084;28;20228;-90
2022/08/22 04:55:21;;;;;;;3.28;2.08;;;13.30;99.90;;;;;;4976584;28;20204;-90
2022/08/22 04:58:08;;;;;;;8.20;2.45;;;13.30;99.90;;;;;;4975177;28;20179;-90
2022/08/22 05:00:56;;;;;;;2.78;2.00;;;13.40;99.90;;;;;;4977963;28;20588;-90
2022/08/22 05:03:27;;;;;;;3.60;2.13;;;13.40;99.90;;;;;;4979100;28;20184;-90
2022/08/22 05:05:56;;;;;;;5.47;2.38;;;13.30;99.90;;;;;;4979958;28;20168;-89
2022/08/22 05:08:26;;;;;;;4.47;2.72;;;13.30;99.90;;;;;;4979138;28;20180;-89
2022/08/22 05:10:52;;;;;;;3.83;2.70;;;13.40;99.90;;;;;;4978795;28;20655;-88
2022/08/22 05:13:46;;;;;;;3.50;2.88;;;13.30;99.90;;;;;;4978988;28;20597;-90
2022/08/22 05:16:18;;;;;;;3.85;2.92;;;13.40;99.90;;;;;;4980333;28;20176;-88
2022/08/22 05:18:59;;;;;;;4.25;2.70;;;13.50;99.90;;;;;;4978940;28;20173;-89
2022/08/22 05:21:31;;;;;;;7.18;2.75;;;13.60;99.90;;;;;;4978075;28;20204;-90
2022/08/22 05:24:00;;;;;;;5.80;3.15;;;13.60;99.90;;;;;;4978259;28;20204;-90
2022/08/22 05:26:28;;;;;;;4.75;2.97;;;13.60;99.90;;;;;;4960472;28;20215;-89
2022/08/22 05:29:01;;;;;;;4.50;3.00;;;13.70;99.90;;;;;;4962164;28;20604;-88
2022/08/22 05:31:31;;;;;;;4.75;2.80;;;13.80;99.90;;;;;;4957873;28;20333;-88
2022/08/22 05:34:12;;;;;;;4.00;2.80;;;13.80;99.90;;;;;;4969170;28;20180;-89
2022/08/22 05:36:42;;;;;;;4.60;2.85;;;13.90;99.90;;;;;;4977126;28;20173;-88
2022/08/22 05:39:18;;;;;;;6.38;2.70;;;13.90;99.90;;;;;;4977140;28;20177;-89
2022/08/22 05:41:46;;;;;;;2.90;2.60;;;14.00;99.90;;;;;;4977770;28;20239;-89
2022/08/22 05:44:31;;;;;;;4.35;2.60;;;14.10;99.90;;;;;;4970881;28;20263;-89
2022/08/22 05:47:05;;;;;;;3.50;2.47;;;14.10;99.90;;;;;;4958021;29;20212;-88
2022/08/22 05:49:37;;;;;;;4.22;3.13;;;14.10;99.90;;;;;;4957218;28;20372;-88
2022/08/22 05:52:20;;;;;;;8.77;3.28;;;14.20;99.90;;;;;;4957661;28;20184;-89
2022/08/22 05:54:58;;;;;;;8.32;3.03;;;14.20;99.90;;;;;;4957225;28;20181;-85
2022/08/22 05:57:37;;;;;;;5.15;2.80;;;14.30;99.90;;;;;;4957120;28;20281;-85
2022/08/22 06:00:09;;;;;;;5.90;3.00;;;14.40;99.90;;;;;;4957188;28;20181;-85
2022/08/22 06:02:52;;;;;;;5.72;3.45;;;14.40;99.90;;;;;;4957823;28;20204;-85
2022/08/22 06:05:27;;;;;;;4.75;3.17;;;14.40;99.90;;;;;;4961805;28;20185;-85
2022/08/22 06:08:25;;;;;;;4.80;2.85;;;14.60;99.90;;;;;;4956829;29;20185;-85
2022/08/22 06:10:54;;;;;;;6.05;3.33;;;14.60;99.90;;;;;;4966711;28;20243;-85
2022/08/22 06:13:44;;;;;;;5.82;3.25;;;14.60;99.90;;;;;;4975734;28;20188;-86
2022/08/22 06:16:23;;;;;;;3.80;2.90;;;14.70;99.90;;;;;;4976325;28;20212;-86
2022/08/22 06:18:50;;;;;;;6.68;3.25;;;14.70;99.90;;;;;;4976086;28;20172;-85
2022/08/22 06:21:31;;;;;;;4.53;3.00;;;14.80;99.90;;;;;;4975728;28;20723;-84
2022/08/22 06:24:00;;;;;;;8.73;3.17;;;14.90;99.90;;;;;;4975531;28;20188;-85
2022/08/22 06:26:34;;;;;;;6.55;3.55;;;14.90;99.90;;;;;;4975741;28;20179;-85
2022/08/22 06:29:01;;;;;;;5.55;3.30;;;15.00;99.90;;;;;;4959314;28;20631;-85
2022/08/22 06:31:54;;;;;;;3.80;2.80;;;15.00;99.90;;;;;;4963732;28;20196;-85
2022/08/22 06:34:25;;;;;;;6.63;3.03;;;15.10;99.90;;;;;;4967434;28;20593;-86
2022/08/22 06:36:54;;;;;;;5.03;3.17;;;15.20;99.90;;;;;;4977114;28;20212;-85
2022/08/22 06:39:34;;;;;;;8.57;3.65;;;15.30;99.90;;;;;;4975405;28;20180;-85
2022/08/22 06:42:07;;;;;;;6.28;3.33;;;15.50;99.90;;;;;;4975383;28;20212;-86
2022/08/22 06:44:36;;;;;;;4.85;2.78;;;15.50;99.90;;;;;;4976806;28;20175;-85
2022/08/22 06:47:05;;;;;;;3.78;2.80;;;15.60;99.90;;;;;;4976948;28;20203;-85
2022/08/22 06:49:34;;;;;;;4.93;3.00;;;15.70;99.90;;;;;;4974404;28;20232;-86
2022/08/22 06:52:06;;;;;;;5.90;2.95;;;15.80;99.90;;;;;;4959962;28;20576;-86
2022/08/22 06:54:35;;;;;;;7.40;3.00;;;15.90;99.90;;;;;;4955804;29;20190;-85
2022/08/22 06:57:03;;;;;;;4.43;2.90;;;16.00;99.90;;;;;;4957023;28;20173;-85
2022/08/22 06:59:33;;;;;;;11.20;2.97;;;16.10;99.90;;;;;;4956011;28;20217;-85
2022/08/22 07:02:16;;;;;;;4.97;2.85;;;16.30;99.90;;;;;;4955919;29;20220;-85
2022/08/22 07:04:42;;;;;;;4.40;2.75;;;16.40;99.90;;;;;;4973609;28;20196;-86
2022/08/22 07:07:08;;;;;;;5.65;3.03;;;16.50;99.90;;;;;;4975254;28;20220;-85
2022/08/22 07:09:37;;;;;;;5.22;2.75;;;16.60;99.90;;;;;;4974814;28;20189;-85
2022/08/22 07:12:10;;;;;;;6.97;3.00;;;16.80;99.90;;;;;;4976113;28;20176;-84
2022/08/22 07:14:48;;;;;;;5.95;2.88;;;16.90;99.90;;;;;;4970621;28;20173;-85
2022/08/22 07:17:21;;;;;;;6.70;3.00;;;17.10;99.90;;;;;;4955545;29;20173;-84
2022/08/22 07:20:24;;;;;;;8.80;2.88;;;17.30;99.90;;;;;;4970762;28;20176;-85
2022/08/22 07:23:18;;;;;;;4.20;2.60;;;17.50;99.90;;;;;;4954730;28;20268;-84
2022/08/22 07:26:06;;;;;;;4.78;2.35;;;17.70;99.90;;;;;;4948337;28;20628;-84
2022/08/22 07:28:47;;;;;;;9.95;3.30;;;17.90;99.90;;;;;;4962715;28;20315;-85
2022/08/22 07:31:26;;;;;;;10.10;2.75;;;18.10;99.90;;;;;;4956910;28;20169;-87
2022/08/22 07:33:58;;;;;;;7.05;2.45;;;18.20;99.90;;;;;;4966074;28;20188;-85
2022/08/22 07:36:57;;;;;;;4.03;2.35;;;18.40;99.90;;;;;;4974308;28;20173;-85
2022/08/22 07:39:33;;;;;;;7.82;2.53;;;18.50;99.90;;;;;;4974556;28;20603;-86
2022/08/22 07:42:10;;;;;;;7.55;2.85;;;18.70;99.90;;;;;;4967138;28;20204;-88
2022/08/22 07:45:04;;;;;;;3.08;2.20;;;18.90;99.90;;;;;;4973017;28;20160;-87
2022/08/22 07:48:01;;;;;;;3.97;2.17;;;19.20;99.90;;;;;;4955451;28;20549;-86
2022/08/22 07:50:30;;;;;;;8.18;2.53;;;19.30;99.90;;;;;;4955346;28;20229;-87
2022/08/22 07:53:12;;;;;;;4.10;2.33;;;19.50;99.90;;;;;;4955175;28;20181;-85
2022/08/22 07:55:39;;;;;;;7.40;2.72;;;19.70;99.90;;;;;;4956278;28;20166;-85
2022/08/22 07:58:07;;;;;;;5.60;2.25;;;19.80;99.90;;;;;;4954817;28;20213;-85
2022/08/22 08:00:39;;;;;;;7.72;2.55;;;20.00;99.90;;;;;;4954887;28;20263;-86
2022/08/22 08:03:07;;;;;;;5.00;2.28;;;20.10;99.90;;;;;;4959741;28;20196;-87
2022/08/22 08:05:36;;;;;;;5.78;2.30;;;20.20;99.90;;;;;;4974266;28;20208;-87
2022/08/22 08:08:15;;;;;;;4.68;2.08;;;20.40;99.90;;;;;;4974613;28;20169;-86
2022/08/22 08:10:41;;;;;;;6.15;2.45;;;20.50;99.90;;;;;;4975183;28;20251;-86
2022/08/22 08:13:13;;;;;;;6.10;2.30;;;20.60;99.90;;;;;;4974028;28;20180;-86
2022/08/22 08:15:41;;;;;;;7.45;2.20;;;20.80;99.90;;;;;;4973958;28;20200;-85
2022/08/22 08:18:18;;;;;;;3.85;1.70;;;20.90;99.60;;;;;;4959947;28;20229;-86
2022/08/22 08:20:50;;;;;;;4.63;1.90;;;21.00;99.90;;;;;;4955198;28;20243;-87
2022/08/22 08:23:18;;;;;;;5.22;1.88;;;21.10;99.90;;;;;;4954654;29;20204;-85
2022/08/22 08:26:01;;;;;;;4.47;2.20;;;21.30;98.80;;;;;;4954276;28;20188;-87
2022/08/22 08:28:33;;;;;;;4.97;1.92;;;21.40;98.00;;;;;;4956274;28;20283;-86
2022/08/22 08:31:08;;;;;;;4.05;1.75;;;21.50;98.00;;;;;;4974120;28;20188;-87
2022/08/22 08:33:38;;;;;;;4.55;1.80;;;21.60;97.80;;;;;;4973613;28;20207;-87
2022/08/22 08:36:17;;;;;;;4.07;1.90;;;21.80;97.80;;;;;;4969138;28;20501;-86
2022/08/22 08:39:11;;;;;;;3.03;1.40;;;21.90;97.80;;;;;;4970250;28;20566;-87
2022/08/22 08:42:06;;;;;;;5.13;1.95;;;22.00;98.30;;;;;;4973710;28;20212;-87
2022/08/22 08:45:05;;;;;;;2.47;1.20;;;22.20;97.30;;;;;;4936812;28;20425;-86
2022/08/22 08:47:49;;;;;;;3.22;1.55;;;22.30;97.30;;;;;;4923081;28;20189;-87
2022/08/22 08:50:28;;;;;;;3.90;1.60;;;22.40;97.80;;;;;;4973342;28;20235;-85
2022/08/22 08:53:07;;;;;;;7.28;1.80;;;22.50;97.50;;;;;;4973763;28;20196;-88
2022/08/22 08:55:45;;;;;;;4.93;1.48;;;22.70;96.80;;;;;;4973665;28;20686;-90
2022/08/22 08:58:39;;;;;;;7.25;1.60;;;22.80;96.50;;;;;;4961119;28;20184;-86
2022/08/22 09:01:25;;;;;;;2.63;1.27;;;23.00;94.50;;;;;;4954099;28;20228;-85
2022/08/22 09:04:34;;;;;;;2.75;1.15;;;23.10;93.30;;;;;;4963169;28;20180;-88
2022/08/22 09:07:37;;;;;;;4.22;1.17;;;23.20;93.30;;;;;;4954342;28;20211;-85
2022/08/22 09:10:22;;;;;;;3.17;1.35;;;23.30;93.10;;;;;;4957382;28;20251;-86
2022/08/22 09:13:09;;;;;;;1.90;1.10;;;23.40;91.80;;;;;;4974587;28;20550;-87
2022/08/22 09:15:46;;;;;;;3.53;1.13;;;23.40;90.20;;;;;;4974492;28;20184;-87
2022/08/22 09:18:27;;;;;;;2.78;1.02;;;23.50;90.50;;;;;;4973466;28;20176;-86
2022/08/22 09:21:04;;;;;;;3.92;1.50;;;23.70;89.10;;;;;;4973382;28;20211;-86
2022/08/22 09:23:33;;;;;;;5.38;1.48;;;23.70;88.70;;;;;;4963457;28;20565;-86
2022/08/22 09:26:16;;;;;;;2.55;1.10;;;23.90;88.80;;;;;;4955298;28;20173;-87
2022/08/22 09:29:14;;;;;;;4.30;1.48;;;24.00;88.80;;;;;;4954115;28;20177;-88
2022/08/22 09:32:02;;;;;;;2.85;1.23;;;24.10;88.20;;;;;;4955519;28;20166;-88
2022/08/22 09:34:40;;;;;;;4.63;1.42;;;24.20;87.40;;;;;;4954120;28;20236;-92
2022/08/22 09:37:40;;;;;;;4.13;1.60;;;24.30;85.90;;;;;;4954281;28;20176;-90
2022/08/22 09:40:27;;;;;;;5.60;1.60;;;24.30;84.90;;;;;;4958506;28;20188;-91
2022/08/22 09:43:14;;;;;;;3.53;1.17;;;24.30;86.20;;;;;;4973433;28;20691;-89
2022/08/22 09:46:01;;;;;;;2.45;1.10;;;24.40;84.60;;;;;;4974430;28;20180;-87
2022/08/22 09:48:51;;;;;;;4.43;1.40;;;24.40;83.20;;;;;;4977085;28;20179;-90
2022/08/22 09:51:37;;;;;;;2.58;1.48;;;24.40;84.70;;;;;;4977964;28;20185;-90
2022/08/22 09:54:21;;;;;;;4.35;1.40;;;24.50;86.50;;;;;;4976767;28;20196;-89
2022/08/22 09:56:59;;;;;;;2.88;1.50;;;24.70;84.30;;;;;;4976867;28;20578;-90
2022/08/22 10:00:00;;;;;;;5.25;1.08;;;24.70;84.70;;;;;;4977029;28;20179;-89
2022/08/22 10:02:26;;;;;;;1.80;1.00;;;24.90;84.40;;;;;;4969784;28;20231;-85
2022/08/22 10:05:08;;;;;;;2.03;0.95;;;24.90;83.70;;;;;;4977645;28;20539;-89
2022/08/22 10:07:37;;;;;;;2.38;1.20;;;24.90;78.60;;;;;;4975816;28;20228;-91
2022/08/22 10:10:30;;;;;;;7.88;1.00;;;25.00;82.00;;;;;;4976433;28;20239;-85
2022/08/22 10:13:02;;;;;;;3.15;1.00;;;25.10;81.60;;;;;;4962970;28;20177;-89
2022/08/22 10:15:36;;;;;;;1.67;0.80;;;25.20;79.10;;;;;;4957542;28;20488;-85
2022/08/22 10:18:08;;;;;;;2.67;1.10;;;25.30;79.30;;;;;;4957704;28;20181;-92
2022/08/22 10:21:22;;;;;;;2.95;1.05;;;25.40;78.20;;;;;;4975614;28;20180;-88
2022/08/22 10:23:52;;;;;;;3.60;1.40;;;25.40;80.20;;;;;;4967521;28;20204;-91
2022/08/22 10:26:30;;;;;;;3.20;1.02;;;25.40;78.30;;;;;;4975579;28;20173;-90
2022/08/22 10:29:06;;;;;;;2.65;1.10;;;25.50;79.20;;;;;;4969217;28;20161;-93
2022/08/22 10:31:46;;;;;;;1.55;0.88;;;25.60;76.00;;;;;;4974171;28;20211;-90
2022/08/22 10:34:19;;;;;;;4.35;1.00;;;25.60;75.90;;;;;;4968917;28;20172;-90
2022/08/22 10:37:21;;;;;;;3.08;0.80;;;25.60;75.80;;;;;;4976328;28;20631;-94
2022/08/22 10:40:01;;;;;;;2.13;0.98;;;25.70;77.40;;;;;;4976562;28;20181;-90
2022/08/22 10:42:32;;;;;;;1.90;0.75;;;25.80;76.10;;;;;;4976019;28;20224;-89
2022/08/22 10:45:17;;;;;;;2.65;0.75;;;26.00;77.20;;;;;;4975688;28;20186;-88
2022/08/22 10:47:52;;;;;;;2.10;0.90;;;26.00;77.50;;;;;;4956835;28;20181;-88
2022/08/22 10:50:30;;;;;;;2.70;0.90;;;26.10;75.50;;;;;;4970740;28;20663;-88
2022/08/22 10:55:54;;;;;;;4.57;1.02;;;26.30;76.80;;;;;;4984096;28;20307;-88
2022/08/22 10:58:26;;;;;;;3.75;1.10;;;26.40;74.90;;;;;;4979104;28;20171;-88
2022/08/22 11:00:58;;;;;;;3.80;0.88;;;26.50;76.30;;;;;;4966749;28;20298;-91
2022/08/22 11:03:33;;;;;;;1.55;0.63;;;26.60;76.30;;;;;;4960136;28;20227;-87
2022/08/22 11:06:39;;;;;;;2.90;1.10;;;26.70;75.10;;;;;;4959779;28;20271;-91
2022/08/22 11:09:29;;;;;;;3.15;0.80;;;26.70;76.00;;;;;;4946598;28;20569;-89
2022/08/22 11:12:02;;;;;;;1.13;0.80;;;26.80;75.40;;;;;;4977908;28;20520;-90
2022/08/22 11:14:54;;;;;;;2.45;0.90;;;26.80;77.00;;;;;;4996129;28;20198;-89
2022/08/22 11:17:50;;;;;;;3.33;1.00;;;26.70;76.70;;;;;;4993213;28;20184;-88
2022/08/22 11:20:17;;;;;;;1.65;0.80;;;26.80;74.50;;;;;;4960678;28;20682;-88
2022/08/22 11:23:19;;;;;;;5.18;1.27;;;26.60;77.40;;;;;;4977386;28;20191;-89
2022/08/22 11:25:51;;;;;;;1.77;0.90;;;26.40;76.20;;;;;;4971939;28;20176;-90
2022/08/22 11:28:59;;;;;;;2.70;1.10;;;26.20;77.70;;;;;;4959274;28;20184;-91
2022/08/22 11:31:54;;;;;;;2.03;0.98;;;25.90;77.60;;;;;;4959217;28;20646;-90
2022/08/22 11:34:57;;;;;;;2.97;1.02;;;25.60;78.70;;;;;;4959085;28;20176;-91
2022/08/22 11:37:44;;;;;;;2.45;1.02;;;25.60;79.20;;;;;;4967338;28;20183;-92
2022/08/22 11:40:21;;;;;;;2.08;0.90;;;25.50;76.50;;;;;;4978444;28;20199;-91
2022/08/22 11:43:03;;;;;;;2.92;0.88;;;25.40;78.10;;;;;;4995397;28;20198;-93
2022/08/22 11:45:37;;;;;;;1.45;0.85;;;25.20;78.10;;;;;;4977948;28;20187;-93
2022/08/22 11:48:16;;;;;;;2.58;1.13;;;25.00;77.10;;;;;;4978382;28;20172;-91
2022/08/22 11:51:09;;;;;;;1.58;1.00;;;24.90;78.70;;;;;;4973295;28;20215;-92
2022/08/22 11:53:42;;;;;;;2.97;0.82;;;25.10;77.50;;;;;;4940232;28;20200;-90
2022/08/22 11:56:30;;;;;;;4.47;0.70;;;25.50;76.00;;;;;;4964036;28;20567;-93
2022/08/22 11:59:11;;;;;;;2.58;1.00;;;25.80;73.70;;;;;;4964920;28;20271;-92
2022/08/22 12:01:49;;;;;;;1.83;1.00;;;26.30;74.10;;;;;;4976354;28;20212;-94
2022/08/22 12:04:22;;;;;;;2.40;1.00;;;26.70;73.20;;;;;;4976639;28;20202;-91
2022/08/22 12:07:11;;;;;;;6.35;0.77;;;26.90;71.70;;;;;;4974323;28;20177;-90
2022/08/22 12:09:57;;;;;;;5.47;1.35;;;26.60;72.10;;;;;;4958072;28;20207;-89
2022/08/22 12:12:48;;;;;;;4.20;0.90;;;26.30;73.10;;;;;;4975572;28;20246;-92
2022/08/22 12:15:42;;;;;;;2.58;0.80;;;26.40;75.00;;;;;;4994574;28;20247;-91
2022/08/22 12:18:47;;;;;;;2.95;0.80;;;26.70;74.60;;;;;;4963378;28;20192;-90
2022/08/22 12:21:55;;;;;;;2.65;1.00;;;27.10;73.80;;;;;;4992226;28;20658;-87
2022/08/22 12:24:58;;;;;;;4.00;0.95;;;27.40;71.90;;;;;;4976576;28;20188;-88
2022/08/22 12:27:39;;;;;;;2.22;0.70;;;27.50;73.00;;;;;;4987173;28;20263;-90
2022/08/22 12:30:29;;;;;;;2.30;0.75;;;27.70;70.70;;;;;;4975641;28;20173;-88
2022/08/22 12:33:25;;;;;;;4.43;0.95;;;27.80;72.20;;;;;;4977951;28;20186;-88
2022/08/22 12:36:16;;;;;;;1.88;0.80;;;27.90;72.50;;;;;;4958011;28;20513;-87
2022/08/22 12:38:56;;;;;;;2.65;0.75;;;28.20;71.00;;;;;;4957893;28;20216;-91
2022/08/22 12:41:22;;;;;;;1.90;0.77;;;28.20;69.40;;;;;;4970577;28;20241;-91
2022/08/22 12:43:57;;;;;;;1.75;0.95;;;27.80;69.30;;;;;;4994989;28;20179;-90
2022/08/22 12:46:36;;;;;;;2.10;1.00;;;27.50;71.30;;;;;;4976364;28;20322;-88
2022/08/22 12:49:28;;;;;;;1.40;0.70;;;27.20;71.50;;;;;;4977112;28;20369;-92
2022/08/22 12:52:05;;;;;;;5.03;0.95;;;26.80;70.60;;;;;;4995088;28;20159;-91
2022/08/22 12:54:49;;;;;;;2.67;1.00;;;26.50;71.70;;;;;;4994452;28;20168;-90
2022/08/22 12:57:31;;;;;;;2.42;0.93;;;26.20;73.30;;;;;;4994119;28;20187;-91
2022/08/22 13:00:21;;;;;;;2.25;1.02;;;26.10;73.70;;;;;;4977289;28;20612;-90
2022/08/22 13:02:52;;;;;;;1.20;0.82;;;25.90;73.90;;;;;;4984191;28;20185;-91
2022/08/22 13:05:22;;;;;;;2.95;1.33;;;26.10;75.30;;;;;;4977546;28;20195;-92
2022/08/22 13:08:12;;;;;;;1.75;0.80;;;26.20;71.60;;;;;;4969230;28;20585;-90
2022/08/22 13:10:52;;;;;;;3.03;1.13;;;26.20;73.70;;;;;;4966493;28;20184;-89
2022/08/22 13:13:32;;;;;;;3.88;0.88;;;26.10;75.00;;;;;;4976949;28;20641;-91
2022/08/22 13:16:19;;;;;;;1.80;0.82;;;25.90;74.10;;;;;;4977513;28;20171;-89
2022/08/22 13:18:52;;;;;;;3.25;1.08;;;25.80;74.00;;;;;;4976641;28;20184;-91
2022/08/22 13:21:32;;;;;;;2.65;1.10;;;25.80;74.00;;;;;;4966435;28;20689;-92
2022/08/22 13:24:04;;;;;;;2.70;1.10;;;25.70;75.30;;;;;;4964717;28;20195;-92
2022/08/22 13:26:32;;;;;;;1.95;0.98;;;25.60;72.90;;;;;;4961054;28;20172;-92
2022/08/22 13:29:24;;;;;;;2.63;0.90;;;25.60;74.50;;;;;;4963492;28;20173;-91
2022/08/22 13:31:59;;;;;;;0.88;0.70;;;25.50;75.70;;;;;;4966867;28;20172;-90
2022/08/22 13:34:44;;;;;;;4.30;1.15;;;25.40;75.40;;;;;;4961523;28;20173;-92
2022/08/22 13:37:15;;;;;;;1.63;0.82;;;25.40;73.70;;;;;;4962048;28;20279;-89
2022/08/22 13:39:45;;;;;;;2.75;1.02;;;25.40;75.80;;;;;;4970936;28;20267;-93
2022/08/22 13:42:21;;;;;;;1.33;0.85;;;25.30;75.70;;;;;;4973791;28;20578;-88
2022/08/22 13:44:50;;;;;;;3.20;1.05;;;25.60;73.90;;;;;;4965280;28;20180;-91
2022/08/22 13:47:20;;;;;;;1.92;0.90;;;26.00;75.30;;;;;;4961502;28;20181;-89
2022/08/22 13:49:52;;;;;;;2.25;0.85;;;26.50;75.10;;;;;;4990804;28;20228;-90
2022/08/22 13:52:36;;;;;;;2.53;0.95;;;26.90;71.30;;;;;;4971075;28;20219;-88
2022/08/22 13:55:13;;;;;;;2.17;0.80;;;27.30;72.30;;;;;;4961464;28;20255;-88
2022/08/22 13:57:46;;;;;;;4.10;0.90;;;27.50;70.30;;;;;;4980077;28;20230;-89
2022/08/22 14:00:18;;;;;;;2.75;1.10;;;27.80;71.50;;;;;;4978585;28;20176;-92
2022/08/22 14:03:11;;;;;;;3.78;1.30;;;27.90;69.80;;;;;;4978075;28;20220;-89
2022/08/22 14:05:41;;;;;;;6.03;1.60;;;27.80;70.00;;;;;;4978519;28;20203;-93
2022/08/22 14:08:20;;;;;;;2.67;1.00;;;27.90;71.00;;;;;;4978256;28;20169;-92
2022/08/22 14:11:16;;;;;;;4.50;1.38;;;27.90;71.50;;;;;;4986459;28;20183;-87